Airfield :
LOGIN :

Register | Disclaimer

   EN    FR    IT 

 










Legend :    VFR   Marginal VFR   IFR   Intensive IFR   Very Intensive IFR
Visi :
Ceiling :
>= 8 km
>= 3000ft
5 to 8 km
1000 to 3000 ft
1500m to 5 km
500 to 1000 ft
800 to 1500m
200 to 500 ft
< 800m
< 200 ft
Symbols :   Thunderstorms  Fog  Heavy snow  Heavy precipitations  Wind > 20 kt
SIGMETs :     Misc.  Thunderstorms  Icing  Turbulence  Mountain Waves  Volcanic Ashes






- Airport Elevation : 408 ft
- IATA code : KWG


UKDR - Lozuvatka

CURRENT METAR :
  • 290730Z 12005MPS 080V170 CAVOK 19/11 Q1014 R18/09//70 NOSIG

EXPIRED METARs :
  • 290700Z 11005MPS CAVOK 17/11 Q1014 R18/09//70 NOSIG
  • 290630Z 12004MPS 080V150 CAVOK 16/11 Q1015 R36/09//70 NOSIG
  • 290600Z 11003MPS 050V150 CAVOK 15/11 Q1015 R36/09//70 NOSIG
  • 290530Z 10003MPS 060V140 CAVOK 15/11 Q1015 R36/09//70 NOSIG
  • 290500Z 10004MPS 050V150 CAVOK 15/11 Q1015 R36/09//70 NOSIG

TAF TAF UKDR
Valid from the 29 at 06:00 until the 30 at 06:00 UTC


290501Z 2906/3006 11007G12MPS 9999 BKN025 SCT025CB
TEMPO 2913/2918 12010G15MPS 2200 -TSRA BKN011 BKN020CB
FM291800 12006MPS 5000 -SHRA BR BKN008 BKN020CB
TEMPO 2918/3006 14007G13MPS 1100 TSRA BKN004 BKN020CB
UKDV FIR / Europe



MET'MAP, your aeronautical weather chart ! - Copyright ORBIFLY December 2007 - Disclaimer

ORBIFLY MET'MAP TEAM :

Programming & Development : Alexandra Zaïnal
Concept & original design : Baudouin d'Aumeries
Assistance for programming : Marc-Olivier Méhu
Technical & hardware support : Manuel Goepfert

Contact : metmap@orbifly.com




SOURCES & CREDITS :

   NOAA